SEIKF ESSW-ESSV

Flight info

Callsign SEIKF
Flight time 0h 29m
Altitude 7000
Route DCT
Aircraft PA24/L-SDGRY/S

Departure

Time 2026-05-04 18:16
Airport Västervik Airport (ESSW)

Arrival

Time 2026-05-04 18:45
Airport Visby Airport (ESSV)
Time Latitude Longitude Altitude Speed Heading
2026-05-04 17:57 57.77753 16.52922 121 ft 0 kts 240°
2026-05-04 17:59 57.77752 16.52916 123 ft 0 kts 237°
2026-05-04 18:10 57.77747 16.52897 123 ft 2 kts 257°
2026-05-04 18:10 57.77742 16.52861 122 ft 6 kts 233°
2026-05-04 18:10 57.77737 16.52846 122 ft 0 kts 242°
2026-05-04 18:11 57.77732 16.52827 123 ft 6 kts 248°
2026-05-04 18:11 57.77727 16.52803 123 ft 1 kts 245°
2026-05-04 18:12 57.77726 16.52800 123 ft 0 kts 244°
2026-05-04 18:13 57.77723 16.52788 119 ft 7 kts 243°
2026-05-04 18:14 57.77675 16.52703 122 ft 13 kts 150°
2026-05-04 18:14 57.77540 16.52842 121 ft 29 kts 152°
2026-05-04 18:14 57.77416 16.52944 123 ft 9 kts 133°
2026-05-04 18:15 57.77426 16.52964 122 ft 0 kts 324°
2026-05-04 18:15 57.77533 16.52850 122 ft 56 kts 330°
2026-05-04 18:16 57.77990 16.52430 277 ft 80 kts 327°
2026-05-04 18:16 57.78495 16.51946 559 ft 82 kts 326°
2026-05-04 18:16 57.78887 16.51229 798 ft 84 kts 276°
2026-05-04 18:17 57.77895 16.51310 1220 ft 111 kts 151°
2026-05-04 18:17 57.77258 16.52232 1447 ft 119 kts 140°
2026-05-04 18:17 57.76745 16.55210 1973 ft 127 kts 86°
2026-05-04 18:18 57.76681 16.56856 2224 ft 129 kts 98°
2026-05-04 18:18 57.76496 16.58519 2483 ft 131 kts 104°
2026-05-04 18:18 57.76262 16.60187 2727 ft 133 kts 107°
2026-05-04 18:18 57.75982 16.61870 2918 ft 138 kts 108°
2026-05-04 18:19 57.75351 16.65439 3167 ft 150 kts 111°
2026-05-04 18:19 57.75113 16.67347 3290 ft 150 kts 97°
2026-05-04 18:19 57.75113 16.69306 3359 ft 152 kts 84°
2026-05-04 18:20 57.75187 16.71256 3500 ft 150 kts 84°
2026-05-04 18:20 57.75238 16.73275 3482 ft 159 kts 86°
2026-05-04 18:20 57.75252 16.75287 3640 ft 154 kts 88°
2026-05-04 18:20 57.75245 16.77311 3664 ft 159 kts 89°
2026-05-04 18:21 57.75204 16.79402 3680 ft 161 kts 92°
2026-05-04 18:21 57.75131 16.81493 3810 ft 157 kts 93°
2026-05-04 18:21 57.75059 16.83486 4043 ft 152 kts 91°
2026-05-04 18:21 57.75036 16.85452 4254 ft 151 kts 88°
2026-05-04 18:22 57.75022 16.87410 4465 ft 150 kts 89°
2026-05-04 18:22 57.74984 16.89372 4608 ft 152 kts 91°
2026-05-04 18:22 57.74930 16.91336 4794 ft 150 kts 91°
2026-05-04 18:22 57.74876 16.93272 4929 ft 152 kts 91°
2026-05-04 18:23 57.74844 16.95250 5098 ft 151 kts 89°
2026-05-04 18:23 57.74845 16.97227 5246 ft 153 kts 90°
2026-05-04 18:23 57.74783 16.99219 5392 ft 153 kts 92°
2026-05-04 18:23 57.74677 17.01204 5542 ft 153 kts 96°
2026-05-04 18:24 57.74526 17.03190 5667 ft 154 kts 98°
2026-05-04 18:24 57.74367 17.05140 5818 ft 153 kts 98°
2026-05-04 18:24 57.74222 17.07128 5948 ft 154 kts 96°
2026-05-04 18:24 57.74126 17.09136 6088 ft 154 kts 93°
2026-05-04 18:25 57.74047 17.11151 6202 ft 156 kts 92°
2026-05-04 18:25 57.73984 17.13155 6324 ft 156 kts 93°
2026-05-04 18:25 57.73893 17.15186 6441 ft 157 kts 94°
2026-05-04 18:25 57.73794 17.17234 6524 ft 160 kts 96°
2026-05-04 18:26 57.73657 17.19295 6605 ft 162 kts 96°
2026-05-04 18:26 57.73534 17.21402 6681 ft 161 kts 94°
2026-05-04 18:26 57.73458 17.23532 6693 ft 166 kts 90°
2026-05-04 18:26 57.73440 17.25709 6698 ft 170 kts 88°
2026-05-04 18:27 57.73454 17.27917 6735 ft 169 kts 87°
2026-05-04 18:27 57.73479 17.30087 6722 ft 169 kts 86°
2026-05-04 18:27 57.73505 17.32288 6716 ft 169 kts 86°
2026-05-04 18:27 57.73551 17.34483 6709 ft 169 kts 86°
2026-05-04 18:28 57.73579 17.36680 6634 ft 169 kts 88°
2026-05-04 18:28 57.73501 17.38845 6508 ft 165 kts 101°
2026-05-04 18:28 57.73005 17.40732 6383 ft 160 kts 137°
2026-05-04 18:28 57.72030 17.41413 6326 ft 146 kts 193°
2026-05-04 18:29 57.71353 17.40333 6249 ft 130 kts 263°
2026-05-04 18:29 57.71723 17.38990 6080 ft 130 kts 332°
2026-05-04 18:29 57.72577 17.39468 5723 ft 152 kts 52°
2026-05-04 18:29 57.72633 17.41499 5413 ft 166 kts 109°
2026-05-04 18:30 57.71349 17.44844 5007 ft 159 kts 102°
2026-05-04 18:30 57.71457 17.46882 4840 ft 156 kts 70°
2026-05-04 18:30 57.71926 17.48679 4683 ft 153 kts 52°
2026-05-04 18:31 57.72458 17.50366 4505 ft 153 kts 57°
2026-05-04 18:31 57.72752 17.52260 4370 ft 151 kts 83°
2026-05-04 18:31 57.72542 17.54150 4281 ft 149 kts 114°
2026-05-04 18:31 57.72138 17.55918 4216 ft 149 kts 109°
2026-05-04 18:32 57.71967 17.57170 4149 ft 150 kts 100°
2026-05-04 18:32 57.71884 17.59728 4032 ft 149 kts 91°
2026-05-04 18:32 57.71826 17.61702 3900 ft 153 kts 90°
2026-05-04 18:32 57.71817 17.63746 3669 ft 159 kts 86°
2026-05-04 18:33 57.71886 17.65109 3573 ft 158 kts 79°
2026-05-04 18:33 57.72047 17.67124 3464 ft 154 kts 82°
2026-05-04 18:33 57.71980 17.69110 3330 ft 153 kts 101°
2026-05-04 18:33 57.71752 17.71058 3209 ft 152 kts 101°
2026-05-04 18:34 57.71561 17.72998 3132 ft 150 kts 98°
2026-05-04 18:34 57.71422 17.74896 3093 ft 146 kts 95°
2026-05-04 18:34 57.71308 17.76792 2976 ft 147 kts 95°
2026-05-04 18:34 57.71230 17.78674 2929 ft 144 kts 92°
2026-05-04 18:35 57.71161 17.80551 2936 ft 145 kts 92°
2026-05-04 18:35 57.71111 17.82270 2977 ft 144 kts 90°
2026-05-04 18:35 57.71088 17.84145 2985 ft 144 kts 89°
2026-05-04 18:35 57.71090 17.86029 2961 ft 146 kts 86°
2026-05-04 18:36 57.71114 17.87916 2955 ft 145 kts 85°
2026-05-04 18:36 57.71171 17.89813 2892 ft 148 kts 83°
2026-05-04 18:36 57.71238 17.91734 2856 ft 149 kts 83°
2026-05-04 18:36 57.71319 17.93639 2850 ft 147 kts 82°
2026-05-04 18:37 57.71393 17.95539 2864 ft 145 kts 83°
2026-05-04 18:37 57.71455 17.97456 2777 ft 150 kts 85°
2026-05-04 18:37 57.71519 17.99400 2751 ft 148 kts 81°
2026-05-04 18:37 57.71657 18.01336 2629 ft 155 kts 78°
2026-05-04 18:38 57.71779 18.03380 2468 ft 161 kts 81°
2026-05-04 18:38 57.71882 18.05482 2349 ft 161 kts 86°
2026-05-04 18:38 57.71816 18.07586 2186 ft 162 kts 96°
2026-05-04 18:38 57.71672 18.09703 1957 ft 167 kts 95°
2026-05-04 18:39 57.71551 18.11898 1717 ft 168 kts 94°
2026-05-04 18:39 57.71504 18.14049 1554 ft 167 kts 89°
2026-05-04 18:39 57.71498 18.16185 1468 ft 161 kts 88°
2026-05-04 18:39 57.71523 18.18233 1424 ft 151 kts 86°
2026-05-04 18:40 57.71603 18.20121 1387 ft 143 kts 80°
2026-05-04 18:40 57.71737 18.21926 1329 ft 139 kts 79°
2026-05-04 18:40 57.71873 18.23674 1287 ft 133 kts 78°
2026-05-04 18:40 57.72024 18.25320 1294 ft 127 kts 74°
2026-05-04 18:41 57.72204 18.26951 1241 ft 128 kts 73°
2026-05-04 18:41 57.72424 18.28563 1196 ft 128 kts 67°
2026-05-04 18:41 57.72742 18.30109 1160 ft 126 kts 62°
2026-05-04 18:41 57.73038 18.31646 1093 ft 126 kts 78°
2026-05-04 18:42 57.72839 18.33140 1116 ft 115 kts 117°
2026-05-04 18:42 57.72490 18.34491 1020 ft 113 kts 118°
2026-05-04 18:42 57.72132 18.35730 975 ft 104 kts 125°
2026-05-04 18:42 57.71715 18.36779 897 ft 100 kts 136°
2026-05-04 18:43 57.71190 18.37548 830 ft 90 kts 160°
2026-05-04 18:43 57.70623 18.37793 842 ft 83 kts 193°
2026-05-04 18:43 57.70077 18.37505 817 ft 84 kts 214°
2026-05-04 18:43 57.69544 18.37000 669 ft 82 kts 212°
2026-05-04 18:44 57.69063 18.36605 537 ft 68 kts 207°
2026-05-04 18:44 57.68782 18.36410 481 ft 62 kts 202°
2026-05-04 18:44 57.68213 18.36048 398 ft 70 kts 206°
2026-05-04 18:44 57.67740 18.35677 329 ft 77 kts 205°
2026-05-04 18:45 57.67230 18.35306 228 ft 77 kts 204°
2026-05-04 18:45 57.66753 18.34960 150 ft 68 kts 204°
2026-05-04 18:45 57.66378 18.34689 151 ft 51 kts 202°
2026-05-04 18:45 57.66104 18.34496 152 ft 37 kts 199°
2026-05-04 18:46 57.65969 18.34296 152 ft 18 kts 283°
2026-05-04 18:46 57.66001 18.34134 153 ft 12 kts 285°
2026-05-04 18:46 57.65975 18.34006 153 ft 9 kts 220°
2026-05-04 18:46 57.65947 18.33946 153 ft 7 kts 246°
2026-05-04 18:47 57.65928 18.33868 153 ft 3 kts 199°
2026-05-04 18:47 57.65914 18.33871 153 ft 0 kts 102°